sensor_id;sensor_type;location;lat;lon;timestamp;temperature;humidity
23114;DHT22;11726;50.122;8.832;2024-03-08T00:00:35;5.40;99.90
23114;DHT22;11726;50.122;8.832;2024-03-08T00:03:02;5.30;99.90
23114;DHT22;11726;50.122;8.832;2024-03-08T00:05:29;5.30;99.90
23114;DHT22;11726;50.122;8.832;2024-03-08T00:07:56;5.20;99.90
23114;DHT22;11726;50.122;8.832;2024-03-08T00:10:23;5.20;99.90
23114;DHT22;11726;50.122;8.832;2024-03-08T00:12:54;5.20;99.90
23114;DHT22;11726;50.122;8.832;2024-03-08T00:15:21;5.10;99.90
23114;DHT22;11726;50.122;8.832;2024-03-08T00:17:49;5.10;99.90
23114;DHT22;11726;50.122;8.832;2024-03-08T00:20:17;5.00;99.90
23114;DHT22;11726;50.122;8.832;2024-03-08T00:22:46;5.00;99.90
23114;DHT22;11726;50.122;8.832;2024-03-08T00:25:14;4.90;99.90
23114;DHT22;11726;50.122;8.832;2024-03-08T00:27:41;4.90;99.90
23114;DHT22;11726;50.122;8.832;2024-03-08T00:30:08;4.90;99.90
23114;DHT22;11726;50.122;8.832;2024-03-08T00:32:36;4.90;99.90
23114;DHT22;11726;50.122;8.832;2024-03-08T00:35:04;4.90;99.90
23114;DHT22;11726;50.122;8.832;2024-03-08T00:37:33;4.90;99.90
23114;DHT22;11726;50.122;8.832;2024-03-08T00:40:03;4.90;99.90
23114;DHT22;11726;50.122;8.832;2024-03-08T00:42:31;4.90;99.90
23114;DHT22;11726;50.122;8.832;2024-03-08T00:44:57;4.90;99.90
23114;DHT22;11726;50.122;8.832;2024-03-08T00:47:26;4.80;99.90
23114;DHT22;11726;50.122;8.832;2024-03-08T00:49:53;4.80;99.90
23114;DHT22;11726;50.122;8.832;2024-03-08T00:52:23;4.80;99.90
23114;DHT22;11726;50.122;8.832;2024-03-08T00:54:50;4.70;99.90
23114;DHT22;11726;50.122;8.832;2024-03-08T00:57:17;4.70;99.90
23114;DHT22;11726;50.122;8.832;2024-03-08T00:59:44;4.70;99.90
23114;DHT22;11726;50.122;8.832;2024-03-08T01:02:10;4.70;99.90
23114;DHT22;11726;50.122;8.832;2024-03-08T01:04:37;4.70;99.90
23114;DHT22;11726;50.122;8.832;2024-03-08T01:07:04;4.60;99.90
23114;DHT22;11726;50.122;8.832;2024-03-08T01:09:30;4.60;99.90
23114;DHT22;11726;50.122;8.832;2024-03-08T01:11:58;4.60;99.90
23114;DHT22;11726;50.122;8.832;2024-03-08T01:14:25;4.60;99.90
23114;DHT22;11726;50.122;8.832;2024-03-08T01:16:58;4.60;99.90
23114;DHT22;11726;50.122;8.832;2024-03-08T01:19:25;4.50;99.90
23114;DHT22;11726;50.122;8.832;2024-03-08T01:21:52;4.60;99.90
23114;DHT22;11726;50.122;8.832;2024-03-08T01:24:19;4.60;99.90
23114;DHT22;11726;50.122;8.832;2024-03-08T01:26:45;4.60;99.90
23114;DHT22;11726;50.122;8.832;2024-03-08T01:29:13;4.50;99.90
23114;DHT22;11726;50.122;8.832;2024-03-08T01:31:40;4.50;99.90
23114;DHT22;11726;50.122;8.832;2024-03-08T01:34:06;4.50;99.90
23114;DHT22;11726;50.122;8.832;2024-03-08T01:36:33;4.60;99.90
23114;DHT22;11726;50.122;8.832;2024-03-08T01:39:00;4.50;99.90
23114;DHT22;11726;50.122;8.832;2024-03-08T01:41:26;4.50;99.90
23114;DHT22;11726;50.122;8.832;2024-03-08T01:43:56;4.50;99.90
23114;DHT22;11726;50.122;8.832;2024-03-08T01:46:23;4.40;99.90
23114;DHT22;11726;50.122;8.832;2024-03-08T01:48:50;4.40;99.90
23114;DHT22;11726;50.122;8.832;2024-03-08T01:51:20;4.40;99.90
23114;DHT22;11726;50.122;8.832;2024-03-08T01:53:47;4.30;99.90
23114;DHT22;11726;50.122;8.832;2024-03-08T01:56:14;4.30;99.90
23114;DHT22;11726;50.122;8.832;2024-03-08T01:58:42;4.30;99.90
23114;DHT22;11726;50.122;8.832;2024-03-08T02:01:14;4.30;99.90
23114;DHT22;11726;50.122;8.832;2024-03-08T02:03:42;4.20;99.90
23114;DHT22;11726;50.122;8.832;2024-03-08T02:06:14;4.20;99.90
23114;DHT22;11726;50.122;8.832;2024-03-08T02:08:44;4.20;99.90
23114;DHT22;11726;50.122;8.832;2024-03-08T02:11:12;4.20;99.90
23114;DHT22;11726;50.122;8.832;2024-03-08T02:13:39;4.20;99.90
23114;DHT22;11726;50.122;8.832;2024-03-08T02:16:06;4.10;99.90
23114;DHT22;11726;50.122;8.832;2024-03-08T02:18:34;4.10;99.90
23114;DHT22;11726;50.122;8.832;2024-03-08T02:21:03;4.00;99.90
23114;DHT22;11726;50.122;8.832;2024-03-08T02:23:32;4.00;99.90
23114;DHT22;11726;50.122;8.832;2024-03-08T02:25:59;4.00;99.90
23114;DHT22;11726;50.122;8.832;2024-03-08T02:28:26;3.90;99.90
23114;DHT22;11726;50.122;8.832;2024-03-08T02:30:53;3.90;99.90
23114;DHT22;11726;50.122;8.832;2024-03-08T02:33:25;3.90;99.90
23114;DHT22;11726;50.122;8.832;2024-03-08T02:35:52;3.90;99.90
23114;DHT22;11726;50.122;8.832;2024-03-08T02:38:20;3.90;99.90
23114;DHT22;11726;50.122;8.832;2024-03-08T02:40:52;3.80;99.90
23114;DHT22;11726;50.122;8.832;2024-03-08T02:43:20;3.90;99.90
23114;DHT22;11726;50.122;8.832;2024-03-08T02:45:48;3.80;99.90
23114;DHT22;11726;50.122;8.832;2024-03-08T02:48:16;3.80;99.90
23114;DHT22;11726;50.122;8.832;2024-03-08T02:50:43;3.80;99.90
23114;DHT22;11726;50.122;8.832;2024-03-08T02:53:12;3.80;99.90
23114;DHT22;11726;50.122;8.832;2024-03-08T02:55:39;3.70;99.90
23114;DHT22;11726;50.122;8.832;2024-03-08T02:58:08;3.70;99.90
23114;DHT22;11726;50.122;8.832;2024-03-08T03:00:37;3.70;99.90
23114;DHT22;11726;50.122;8.832;2024-03-08T03:03:05;3.70;99.90
23114;DHT22;11726;50.122;8.832;2024-03-08T03:05:33;3.70;99.90
23114;DHT22;11726;50.122;8.832;2024-03-08T03:08:03;3.60;99.90
23114;DHT22;11726;50.122;8.832;2024-03-08T03:10:35;3.50;99.90
23114;DHT22;11726;50.122;8.832;2024-03-08T03:13:02;3.60;99.90
23114;DHT22;11726;50.122;8.832;2024-03-08T03:15:31;3.50;99.90
23114;DHT22;11726;50.122;8.832;2024-03-08T03:17:58;3.50;99.90
23114;DHT22;11726;50.122;8.832;2024-03-08T03:20:25;3.50;99.90
23114;DHT22;11726;50.122;8.832;2024-03-08T03:22:59;3.50;99.90
23114;DHT22;11726;50.122;8.832;2024-03-08T03:25:28;3.50;99.90
23114;DHT22;11726;50.122;8.832;2024-03-08T03:28:00;3.40;99.90
23114;DHT22;11726;50.122;8.832;2024-03-08T03:30:27;3.40;99.90
23114;DHT22;11726;50.122;8.832;2024-03-08T03:32:57;3.50;99.90
23114;DHT22;11726;50.122;8.832;2024-03-08T03:35:30;3.50;99.90
23114;DHT22;11726;50.122;8.832;2024-03-08T03:37:56;3.50;99.90
23114;DHT22;11726;50.122;8.832;2024-03-08T03:40:34;3.40;99.90
23114;DHT22;11726;50.122;8.832;2024-03-08T03:43:01;3.30;99.90
23114;DHT22;11726;50.122;8.832;2024-03-08T03:45:29;3.20;99.90
23114;DHT22;11726;50.122;8.832;2024-03-08T03:48:04;3.20;99.90
23114;DHT22;11726;50.122;8.832;2024-03-08T03:50:31;3.20;99.90
23114;DHT22;11726;50.122;8.832;2024-03-08T03:53:01;3.20;99.90
23114;DHT22;11726;50.122;8.832;2024-03-08T03:55:29;3.20;99.90
23114;DHT22;11726;50.122;8.832;2024-03-08T03:57:55;3.10;99.90
23114;DHT22;11726;50.122;8.832;2024-03-08T04:00:22;3.10;99.90
23114;DHT22;11726;50.122;8.832;2024-03-08T04:02:49;3.10;99.90
23114;DHT22;11726;50.122;8.832;2024-03-08T04:05:17;3.10;99.90
23114;DHT22;11726;50.122;8.832;2024-03-08T04:07:44;3.00;99.90
23114;DHT22;11726;50.122;8.832;2024-03-08T04:10:12;3.00;99.90
23114;DHT22;11726;50.122;8.832;2024-03-08T04:12:38;3.00;99.90
23114;DHT22;11726;50.122;8.832;2024-03-08T04:15:05;3.00;99.90
23114;DHT22;11726;50.122;8.832;2024-03-08T04:17:37;3.00;99.90
23114;DHT22;11726;50.122;8.832;2024-03-08T04:20:04;2.90;99.90
23114;DHT22;11726;50.122;8.832;2024-03-08T04:22:37;2.90;99.90
23114;DHT22;11726;50.122;8.832;2024-03-08T04:25:04;2.90;99.90
23114;DHT22;11726;50.122;8.832;2024-03-08T04:27:35;2.90;99.90
23114;DHT22;11726;50.122;8.832;2024-03-08T04:30:02;2.90;99.90
23114;DHT22;11726;50.122;8.832;2024-03-08T04:32:29;2.80;99.90
23114;DHT22;11726;50.122;8.832;2024-03-08T04:34:58;2.80;99.90
23114;DHT22;11726;50.122;8.832;2024-03-08T04:37:27;2.80;99.90
23114;DHT22;11726;50.122;8.832;2024-03-08T04:39:56;2.80;99.90
23114;DHT22;11726;50.122;8.832;2024-03-08T04:42:23;2.80;99.90
23114;DHT22;11726;50.122;8.832;2024-03-08T04:44:50;2.80;99.90
23114;DHT22;11726;50.122;8.832;2024-03-08T04:47:17;2.80;99.90
23114;DHT22;11726;50.122;8.832;2024-03-08T04:49:44;2.70;99.90
23114;DHT22;11726;50.122;8.832;2024-03-08T04:52:11;2.80;99.90
23114;DHT22;11726;50.122;8.832;2024-03-08T04:54:38;2.80;99.90
23114;DHT22;11726;50.122;8.832;2024-03-08T04:57:05;2.70;99.90
23114;DHT22;11726;50.122;8.832;2024-03-08T04:59:35;2.60;99.90
23114;DHT22;11726;50.122;8.832;2024-03-08T05:02:02;2.50;99.90
23114;DHT22;11726;50.122;8.832;2024-03-08T05:04:29;2.50;99.90
23114;DHT22;11726;50.122;8.832;2024-03-08T05:06:56;2.60;99.90
23114;DHT22;11726;50.122;8.832;2024-03-08T05:09:23;2.50;99.90
23114;DHT22;11726;50.122;8.832;2024-03-08T05:11:50;2.50;99.90
23114;DHT22;11726;50.122;8.832;2024-03-08T05:14:17;2.40;99.90
23114;DHT22;11726;50.122;8.832;2024-03-08T05:16:44;2.50;99.90
23114;DHT22;11726;50.122;8.832;2024-03-08T05:19:18;2.50;99.90
23114;DHT22;11726;50.122;8.832;2024-03-08T05:21:49;2.50;99.90
23114;DHT22;11726;50.122;8.832;2024-03-08T05:24:17;2.50;99.90
23114;DHT22;11726;50.122;8.832;2024-03-08T05:26:45;2.50;99.90
23114;DHT22;11726;50.122;8.832;2024-03-08T05:29:13;2.50;99.90
23114;DHT22;11726;50.122;8.832;2024-03-08T05:31:51;2.70;99.90
23114;DHT22;11726;50.122;8.832;2024-03-08T05:34:22;2.90;99.90
23114;DHT22;11726;50.122;8.832;2024-03-08T05:36:49;2.80;99.90
23114;DHT22;11726;50.122;8.832;2024-03-08T05:39:17;2.60;99.90
23114;DHT22;11726;50.122;8.832;2024-03-08T05:41:45;2.50;99.90
23114;DHT22;11726;50.122;8.832;2024-03-08T05:44:13;2.50;99.90
23114;DHT22;11726;50.122;8.832;2024-03-08T05:46:40;2.40;99.90
23114;DHT22;11726;50.122;8.832;2024-03-08T05:49:07;2.40;99.90
23114;DHT22;11726;50.122;8.832;2024-03-08T05:51:38;2.30;99.90
23114;DHT22;11726;50.122;8.832;2024-03-08T05:54:07;2.30;99.90
23114;DHT22;11726;50.122;8.832;2024-03-08T05:56:37;2.40;99.90
23114;DHT22;11726;50.122;8.832;2024-03-08T05:59:04;2.40;99.90
23114;DHT22;11726;50.122;8.832;2024-03-08T06:01:31;2.40;99.90
23114;DHT22;11726;50.122;8.832;2024-03-08T06:03:58;2.50;99.90
23114;DHT22;11726;50.122;8.832;2024-03-08T06:06:25;2.40;99.90
23114;DHT22;11726;50.122;8.832;2024-03-08T06:08:52;2.50;99.90
23114;DHT22;11726;50.122;8.832;2024-03-08T06:11:20;2.40;99.90
23114;DHT22;11726;50.122;8.832;2024-03-08T06:13:47;2.40;99.90
23114;DHT22;11726;50.122;8.832;2024-03-08T06:16:14;2.50;99.90
23114;DHT22;11726;50.122;8.832;2024-03-08T06:18:41;2.40;99.90
23114;DHT22;11726;50.122;8.832;2024-03-08T06:21:09;2.40;99.90
23114;DHT22;11726;50.122;8.832;2024-03-08T06:23:38;2.50;99.90
23114;DHT22;11726;50.122;8.832;2024-03-08T06:26:05;2.50;99.90
23114;DHT22;11726;50.122;8.832;2024-03-08T06:28:32;2.50;99.90
23114;DHT22;11726;50.122;8.832;2024-03-08T06:30:59;2.50;99.90
23114;DHT22;11726;50.122;8.832;2024-03-08T06:33:26;2.60;99.90
23114;DHT22;11726;50.122;8.832;2024-03-08T06:35:54;2.60;99.90
23114;DHT22;11726;50.122;8.832;2024-03-08T06:38:24;2.60;99.90
23114;DHT22;11726;50.122;8.832;2024-03-08T06:40:51;2.60;99.90
23114;DHT22;11726;50.122;8.832;2024-03-08T06:43:18;2.70;99.90
23114;DHT22;11726;50.122;8.832;2024-03-08T06:45:46;2.70;99.90
23114;DHT22;11726;50.122;8.832;2024-03-08T06:48:16;2.70;99.90
23114;DHT22;11726;50.122;8.832;2024-03-08T06:50:46;2.80;99.90
23114;DHT22;11726;50.122;8.832;2024-03-08T06:53:13;2.80;99.90
23114;DHT22;11726;50.122;8.832;2024-03-08T06:55:40;2.80;99.90
23114;DHT22;11726;50.122;8.832;2024-03-08T06:58:07;2.80;99.90
23114;DHT22;11726;50.122;8.832;2024-03-08T07:00:34;2.90;99.90
23114;DHT22;11726;50.122;8.832;2024-03-08T07:03:00;2.90;99.90
23114;DHT22;11726;50.122;8.832;2024-03-08T07:05:28;3.00;99.90
23114;DHT22;11726;50.122;8.832;2024-03-08T07:07:57;3.00;99.90
23114;DHT22;11726;50.122;8.832;2024-03-08T07:10:24;3.10;99.90
23114;DHT22;11726;50.122;8.832;2024-03-08T07:12:52;3.20;99.90
23114;DHT22;11726;50.122;8.832;2024-03-08T07:15:22;3.20;99.90
23114;DHT22;11726;50.122;8.832;2024-03-08T07:17:50;3.30;99.90
23114;DHT22;11726;50.122;8.832;2024-03-08T07:20:19;3.40;99.90
23114;DHT22;11726;50.122;8.832;2024-03-08T07:22:46;3.40;99.90
23114;DHT22;11726;50.122;8.832;2024-03-08T07:25:19;3.50;99.90
23114;DHT22;11726;50.122;8.832;2024-03-08T07:27:52;3.60;99.90
23114;DHT22;11726;50.122;8.832;2024-03-08T07:30:21;3.70;99.90
23114;DHT22;11726;50.122;8.832;2024-03-08T07:33:07;3.80;99.90
23114;DHT22;11726;50.122;8.832;2024-03-08T07:35:34;3.80;99.90
23114;DHT22;11726;50.122;8.832;2024-03-08T07:38:05;3.90;99.90
23114;DHT22;11726;50.122;8.832;2024-03-08T07:40:35;4.00;99.90
23114;DHT22;11726;50.122;8.832;2024-03-08T07:43:02;4.10;99.90
23114;DHT22;11726;50.122;8.832;2024-03-08T07:45:29;4.10;99.90
23114;DHT22;11726;50.122;8.832;2024-03-08T07:47:57;4.20;99.90
23114;DHT22;11726;50.122;8.832;2024-03-08T07:50:24;4.30;99.90
23114;DHT22;11726;50.122;8.832;2024-03-08T07:52:50;4.40;99.90
23114;DHT22;11726;50.122;8.832;2024-03-08T07:55:17;4.50;99.90
23114;DHT22;11726;50.122;8.832;2024-03-08T07:57:44;4.70;99.90
23114;DHT22;11726;50.122;8.832;2024-03-08T08:00:11;4.70;99.90
23114;DHT22;11726;50.122;8.832;2024-03-08T08:02:46;4.70;99.90
23114;DHT22;11726;50.122;8.832;2024-03-08T08:05:16;4.80;99.90
23114;DHT22;11726;50.122;8.832;2024-03-08T08:07:45;5.00;99.90
23114;DHT22;11726;50.122;8.832;2024-03-08T08:10:14;5.10;99.90
23114;DHT22;11726;50.122;8.832;2024-03-08T08:12:45;5.30;99.90
23114;DHT22;11726;50.122;8.832;2024-03-08T08:15:12;5.40;99.90
23114;DHT22;11726;50.122;8.832;2024-03-08T08:17:39;5.40;99.90
23114;DHT22;11726;50.122;8.832;2024-03-08T08:20:06;5.60;99.90
23114;DHT22;11726;50.122;8.832;2024-03-08T08:22:33;5.50;99.90
23114;DHT22;11726;50.122;8.832;2024-03-08T08:24:59;5.70;99.90
23114;DHT22;11726;50.122;8.832;2024-03-08T08:27:26;5.80;99.90
23114;DHT22;11726;50.122;8.832;2024-03-08T08:29:53;5.90;99.90
23114;DHT22;11726;50.122;8.832;2024-03-08T08:32:20;5.90;99.90
23114;DHT22;11726;50.122;8.832;2024-03-08T08:34:46;6.00;99.90
23114;DHT22;11726;50.122;8.832;2024-03-08T08:37:13;5.90;99.90
23114;DHT22;11726;50.122;8.832;2024-03-08T08:39:40;6.00;99.90
23114;DHT22;11726;50.122;8.832;2024-03-08T08:42:06;6.10;99.90
23114;DHT22;11726;50.122;8.832;2024-03-08T08:44:35;6.30;99.90
23114;DHT22;11726;50.122;8.832;2024-03-08T08:47:02;6.60;99.90
23114;DHT22;11726;50.122;8.832;2024-03-08T08:49:38;6.70;99.90
23114;DHT22;11726;50.122;8.832;2024-03-08T08:52:05;6.70;99.90
23114;DHT22;11726;50.122;8.832;2024-03-08T08:54:42;6.50;99.90
23114;DHT22;11726;50.122;8.832;2024-03-08T08:57:15;6.70;99.90
23114;DHT22;11726;50.122;8.832;2024-03-08T08:59:41;6.80;99.90
23114;DHT22;11726;50.122;8.832;2024-03-08T09:02:08;7.10;99.90
23114;DHT22;11726;50.122;8.832;2024-03-08T09:04:43;7.30;99.90
23114;DHT22;11726;50.122;8.832;2024-03-08T09:07:10;7.30;99.90
23114;DHT22;11726;50.122;8.832;2024-03-08T09:09:37;7.50;99.90
23114;DHT22;11726;50.122;8.832;2024-03-08T09:12:05;7.60;99.90
23114;DHT22;11726;50.122;8.832;2024-03-08T09:14:32;7.70;99.90
23114;DHT22;11726;50.122;8.832;2024-03-08T09:16:58;7.70;99.90
23114;DHT22;11726;50.122;8.832;2024-03-08T09:19:25;7.70;99.90
23114;DHT22;11726;50.122;8.832;2024-03-08T09:21:52;7.70;99.90
23114;DHT22;11726;50.122;8.832;2024-03-08T09:24:19;7.90;99.90
23114;DHT22;11726;50.122;8.832;2024-03-08T09:26:47;8.00;99.90
23114;DHT22;11726;50.122;8.832;2024-03-08T09:29:13;8.00;99.90
23114;DHT22;11726;50.122;8.832;2024-03-08T09:31:40;8.00;99.90
23114;DHT22;11726;50.122;8.832;2024-03-08T09:34:07;8.20;99.90
23114;DHT22;11726;50.122;8.832;2024-03-08T09:36:36;8.10;99.90
23114;DHT22;11726;50.122;8.832;2024-03-08T09:39:03;8.10;99.90
23114;DHT22;11726;50.122;8.832;2024-03-08T09:41:30;8.30;99.90
23114;DHT22;11726;50.122;8.832;2024-03-08T09:43:57;8.30;99.90
23114;DHT22;11726;50.122;8.832;2024-03-08T09:46:26;8.20;99.90
23114;DHT22;11726;50.122;8.832;2024-03-08T09:48:56;8.30;99.90
23114;DHT22;11726;50.122;8.832;2024-03-08T09:51:27;8.50;99.90
23114;DHT22;11726;50.122;8.832;2024-03-08T09:53:54;8.50;99.90
23114;DHT22;11726;50.122;8.832;2024-03-08T09:56:22;8.60;99.90
23114;DHT22;11726;50.122;8.832;2024-03-08T09:58:50;8.50;99.90
23114;DHT22;11726;50.122;8.832;2024-03-08T10:01:35;8.40;99.90
23114;DHT22;11726;50.122;8.832;2024-03-08T10:04:02;8.60;99.90
23114;DHT22;11726;50.122;8.832;2024-03-08T10:06:29;8.70;99.90
23114;DHT22;11726;50.122;8.832;2024-03-08T10:08:55;8.60;99.90
23114;DHT22;11726;50.122;8.832;2024-03-08T10:11:24;8.70;99.90
23114;DHT22;11726;50.122;8.832;2024-03-08T10:13:51;8.80;99.90
23114;DHT22;11726;50.122;8.832;2024-03-08T10:16:18;9.00;99.90
23114;DHT22;11726;50.122;8.832;2024-03-08T10:18:46;9.00;99.90
23114;DHT22;11726;50.122;8.832;2024-03-08T10:21:12;9.00;99.90
23114;DHT22;11726;50.122;8.832;2024-03-08T10:23:41;9.00;99.90
23114;DHT22;11726;50.122;8.832;2024-03-08T10:26:13;9.20;99.90
23114;DHT22;11726;50.122;8.832;2024-03-08T10:28:45;9.30;99.90
23114;DHT22;11726;50.122;8.832;2024-03-08T10:31:15;9.20;99.90
23114;DHT22;11726;50.122;8.832;2024-03-08T10:33:46;9.40;99.90
23114;DHT22;11726;50.122;8.832;2024-03-08T10:36:14;9.60;99.90
23114;DHT22;11726;50.122;8.832;2024-03-08T10:38:42;9.50;99.90
23114;DHT22;11726;50.122;8.832;2024-03-08T10:41:11;9.50;99.90
23114;DHT22;11726;50.122;8.832;2024-03-08T10:44:10;9.80;99.90
23114;DHT22;11726;50.122;8.832;2024-03-08T10:47:17;9.50;99.90
23114;DHT22;11726;50.122;8.832;2024-03-08T10:49:50;9.60;99.90
23114;DHT22;11726;50.122;8.832;2024-03-08T10:52:17;9.70;99.90
23114;DHT22;11726;50.122;8.832;2024-03-08T10:54:47;9.60;99.90
23114;DHT22;11726;50.122;8.832;2024-03-08T10:57:14;9.70;99.90
23114;DHT22;11726;50.122;8.832;2024-03-08T10:59:43;9.70;99.90
23114;DHT22;11726;50.122;8.832;2024-03-08T11:02:16;9.80;99.90
23114;DHT22;11726;50.122;8.832;2024-03-08T11:04:47;9.90;99.90
23114;DHT22;11726;50.122;8.832;2024-03-08T11:07:16;10.00;99.90
23114;DHT22;11726;50.122;8.832;2024-03-08T11:09:49;9.90;99.90
23114;DHT22;11726;50.122;8.832;2024-03-08T11:12:28;9.90;99.50
23114;DHT22;11726;50.122;8.832;2024-03-08T11:14:59;10.10;99.90
23114;DHT22;11726;50.122;8.832;2024-03-08T11:19:58;10.30;99.30
23114;DHT22;11726;50.122;8.832;2024-03-08T11:22:29;10.30;99.10
23114;DHT22;11726;50.122;8.832;2024-03-08T11:25:05;10.40;98.50
23114;DHT22;11726;50.122;8.832;2024-03-08T11:27:38;10.50;98.80
23114;DHT22;11726;50.122;8.832;2024-03-08T11:30:07;10.50;98.20
23114;DHT22;11726;50.122;8.832;2024-03-08T11:32:50;10.60;98.50
23114;DHT22;11726;50.122;8.832;2024-03-08T11:35:19;10.70;98.20
23114;DHT22;11726;50.122;8.832;2024-03-08T11:37:46;10.80;97.70
23114;DHT22;11726;50.122;8.832;2024-03-08T11:40:15;10.90;98.40
23114;DHT22;11726;50.122;8.832;2024-03-08T11:42:47;11.00;97.60
23114;DHT22;11726;50.122;8.832;2024-03-08T11:45:15;11.20;97.70
23114;DHT22;11726;50.122;8.832;2024-03-08T11:47:44;11.20;97.30
23114;DHT22;11726;50.122;8.832;2024-03-08T11:50:14;11.20;96.80
23114;DHT22;11726;50.122;8.832;2024-03-08T11:52:43;11.20;97.40
23114;DHT22;11726;50.122;8.832;2024-03-08T11:55:11;10.20;98.60
23114;DHT22;11726;50.122;8.832;2024-03-08T11:57:39;10.50;98.50
23114;DHT22;11726;50.122;8.832;2024-03-08T12:00:06;10.60;98.60
23114;DHT22;11726;50.122;8.832;2024-03-08T12:03:04;10.50;99.10
23114;DHT22;11726;50.122;8.832;2024-03-08T12:05:32;10.70;98.20
23114;DHT22;11726;50.122;8.832;2024-03-08T12:08:00;10.50;97.90
23114;DHT22;11726;50.122;8.832;2024-03-08T12:10:29;10.40;97.60
23114;DHT22;11726;50.122;8.832;2024-03-08T12:12:58;10.30;98.50
23114;DHT22;11726;50.122;8.832;2024-03-08T12:15:29;10.40;98.60
23114;DHT22;11726;50.122;8.832;2024-03-08T12:17:59;10.40;98.10
23114;DHT22;11726;50.122;8.832;2024-03-08T12:20:28;10.70;98.40
23114;DHT22;11726;50.122;8.832;2024-03-08T12:22:58;10.60;98.40
23114;DHT22;11726;50.122;8.832;2024-03-08T12:25:29;10.70;98.30
23114;DHT22;11726;50.122;8.832;2024-03-08T12:27:56;10.80;98.30
23114;DHT22;11726;50.122;8.832;2024-03-08T12:30:25;10.80;98.20
23114;DHT22;11726;50.122;8.832;2024-03-08T12:32:57;11.30;97.10
23114;DHT22;11726;50.122;8.832;2024-03-08T12:35:29;11.60;96.50
23114;DHT22;11726;50.122;8.832;2024-03-08T12:37:58;11.80;96.00
23114;DHT22;11726;50.122;8.832;2024-03-08T12:40:30;11.90;96.00
23114;DHT22;11726;50.122;8.832;2024-03-08T12:42:58;12.00;95.80
23114;DHT22;11726;50.122;8.832;2024-03-08T12:45:25;12.10;95.80
23114;DHT22;11726;50.122;8.832;2024-03-08T12:47:53;12.20;95.60
23114;DHT22;11726;50.122;8.832;2024-03-08T12:50:23;12.20;95.40
23114;DHT22;11726;50.122;8.832;2024-03-08T12:52:53;12.40;95.10
23114;DHT22;11726;50.122;8.832;2024-03-08T12:55:20;12.60;95.50
23114;DHT22;11726;50.122;8.832;2024-03-08T12:57:46;12.60;94.90
23114;DHT22;11726;50.122;8.832;2024-03-08T13:00:15;12.60;94.60
23114;DHT22;11726;50.122;8.832;2024-03-08T13:02:50;12.80;94.60
23114;DHT22;11726;50.122;8.832;2024-03-08T13:05:18;12.80;94.50
23114;DHT22;11726;50.122;8.832;2024-03-08T13:07:44;12.80;94.60
23114;DHT22;11726;50.122;8.832;2024-03-08T13:10:13;13.00;94.10
23114;DHT22;11726;50.122;8.832;2024-03-08T13:12:43;13.50;93.40
23114;DHT22;11726;50.122;8.832;2024-03-08T13:15:10;13.40;94.00
23114;DHT22;11726;50.122;8.832;2024-03-08T13:17:47;13.40;93.20
23114;DHT22;11726;50.122;8.832;2024-03-08T13:20:15;13.50;93.10
23114;DHT22;11726;50.122;8.832;2024-03-08T13:22:56;13.80;93.00
23114;DHT22;11726;50.122;8.832;2024-03-08T13:25:25;13.90;92.50
23114;DHT22;11726;50.122;8.832;2024-03-08T13:27:54;13.60;92.20
23114;DHT22;11726;50.122;8.832;2024-03-08T13:30:23;13.80;92.60
23114;DHT22;11726;50.122;8.832;2024-03-08T13:32:53;13.70;92.10
23114;DHT22;11726;50.122;8.832;2024-03-08T13:35:20;14.00;91.90
23114;DHT22;11726;50.122;8.832;2024-03-08T13:37:54;13.90;92.00
23114;DHT22;11726;50.122;8.832;2024-03-08T13:40:22;14.20;91.50
23114;DHT22;11726;50.122;8.832;2024-03-08T13:42:49;14.10;91.60
23114;DHT22;11726;50.122;8.832;2024-03-08T13:45:16;14.20;91.30
23114;DHT22;11726;50.122;8.832;2024-03-08T13:47:50;14.00;91.40
23114;DHT22;11726;50.122;8.832;2024-03-08T13:50:20;14.20;91.30
23114;DHT22;11726;50.122;8.832;2024-03-08T13:52:52;14.40;90.90
23114;DHT22;11726;50.122;8.832;2024-03-08T13:55:22;14.50;90.20
23114;DHT22;11726;50.122;8.832;2024-03-08T13:57:50;14.30;90.00
23114;DHT22;11726;50.122;8.832;2024-03-08T14:00:18;14.50;88.70
23114;DHT22;11726;50.122;8.832;2024-03-08T14:02:49;15.60;85.60
23114;DHT22;11726;50.122;8.832;2024-03-08T14:05:15;15.10;84.10
23114;DHT22;11726;50.122;8.832;2024-03-08T14:07:43;14.80;85.80
23114;DHT22;11726;50.122;8.832;2024-03-08T14:10:13;14.90;85.90
23114;DHT22;11726;50.122;8.832;2024-03-08T14:12:39;14.80;86.30
23114;DHT22;11726;50.122;8.832;2024-03-08T14:15:06;14.90;87.50
23114;DHT22;11726;50.122;8.832;2024-03-08T14:17:33;15.30;85.40
23114;DHT22;11726;50.122;8.832;2024-03-08T14:20:00;15.60;84.10
23114;DHT22;11726;50.122;8.832;2024-03-08T14:22:27;15.50;84.60
23114;DHT22;11726;50.122;8.832;2024-03-08T14:24:53;15.50;84.10
23114;DHT22;11726;50.122;8.832;2024-03-08T14:27:22;15.60;82.40
23114;DHT22;11726;50.122;8.832;2024-03-08T14:29:49;15.30;83.60
23114;DHT22;11726;50.122;8.832;2024-03-08T14:32:15;15.30;82.90
23114;DHT22;11726;50.122;8.832;2024-03-08T14:34:46;14.80;82.50
23114;DHT22;11726;50.122;8.832;2024-03-08T14:37:12;14.70;83.20
23114;DHT22;11726;50.122;8.832;2024-03-08T14:39:40;15.20;83.00
23114;DHT22;11726;50.122;8.832;2024-03-08T14:42:07;15.00;81.90
23114;DHT22;11726;50.122;8.832;2024-03-08T14:44:35;15.00;82.30
23114;DHT22;11726;50.122;8.832;2024-03-08T14:47:02;14.80;83.10
23114;DHT22;11726;50.122;8.832;2024-03-08T14:49:32;14.80;82.70
23114;DHT22;11726;50.122;8.832;2024-03-08T14:52:03;14.80;82.40
23114;DHT22;11726;50.122;8.832;2024-03-08T14:54:30;15.00;82.20
23114;DHT22;11726;50.122;8.832;2024-03-08T14:56:57;15.10;81.10
23114;DHT22;11726;50.122;8.832;2024-03-08T14:59:24;15.00;81.00
23114;DHT22;11726;50.122;8.832;2024-03-08T15:01:53;14.90;80.90
23114;DHT22;11726;50.122;8.832;2024-03-08T15:04:20;15.30;80.50
23114;DHT22;11726;50.122;8.832;2024-03-08T15:06:47;15.30;80.00
23114;DHT22;11726;50.122;8.832;2024-03-08T15:09:18;15.50;79.40
23114;DHT22;11726;50.122;8.832;2024-03-08T15:11:48;15.70;77.80
23114;DHT22;11726;50.122;8.832;2024-03-08T15:14:17;15.10;80.30
23114;DHT22;11726;50.122;8.832;2024-03-08T15:16:46;15.00;80.60
23114;DHT22;11726;50.122;8.832;2024-03-08T15:19:16;15.30;80.40
23114;DHT22;11726;50.122;8.832;2024-03-08T15:21:46;15.70;78.70
23114;DHT22;11726;50.122;8.832;2024-03-08T15:24:14;15.80;76.10
23114;DHT22;11726;50.122;8.832;2024-03-08T15:26:47;16.00;76.10
23114;DHT22;11726;50.122;8.832;2024-03-08T15:29:17;16.50;74.80
23114;DHT22;11726;50.122;8.832;2024-03-08T15:31:50;16.60;72.60
23114;DHT22;11726;50.122;8.832;2024-03-08T15:34:20;16.70;72.10
23114;DHT22;11726;50.122;8.832;2024-03-08T15:36:50;16.20;71.40
23114;DHT22;11726;50.122;8.832;2024-03-08T15:39:18;16.10;72.10
23114;DHT22;11726;50.122;8.832;2024-03-08T15:41:47;15.70;72.90
23114;DHT22;11726;50.122;8.832;2024-03-08T15:44:13;15.50;72.50
23114;DHT22;11726;50.122;8.832;2024-03-08T15:46:40;15.10;73.70
23114;DHT22;11726;50.122;8.832;2024-03-08T15:49:07;14.90;74.30
23114;DHT22;11726;50.122;8.832;2024-03-08T15:51:35;15.20;73.80
23114;DHT22;11726;50.122;8.832;2024-03-08T15:54:06;15.00;73.50